Check out our new BloomSky Weather System.

Active alerts


No alerts


Thunder radar  blitzortung!


Rain radar more information rain snow radar


Visit our other weather sites:

Template documentation
and downloads

And another site



Weather Underground History page Text

Daily Summary for January 23, 2017 Units:  Metric    English   Both
« Previous Day
Next Day »
Daily Weekly Monthly Yearly Custom
  High: Low: Average:
Temperature: 22.8 °C 7.6 °C 14.8 °C
Dew Point: 7.9 °C 1.7 °C 5.1 °C
Humidity: 80 % 30 % 55 %
Wind Speed: 11.3 km/h 0 km/h 1.8 km/h
Wind Gust: 16.1 km/h - -
Wind:- - WSW
Pressure: 1016.8 hPa 1010.7 hPa -
Precipitation: 0 mm    
Historical Graphs
 
 
Tabular Data for January 23, 2017
Time Temperature Dew Point Pressure Wind Wind Speed Wind Gust Humidity Rainfall Rate (Hourly)
00:03 14.6 °C 5.4 °C 1012.4 hPa SW 1.6 km/h 14.5 km/h 54 % 0 mm
00:08 14.4 °C 5.2 °C 1012.4 hPa Calm   14.5 km/h 54 % 0 mm
00:13 14.3 °C 5.4 °C 1012.8 hPa Calm   12.9 km/h 55 % 0 mm
00:18 14.1 °C 5.2 °C 1012.8 hPa Calm   12.9 km/h 55 % 0 mm
00:23 14 °C 5.4 °C 1012.8 hPa NNW 3.2 km/h 8 km/h 56 % 0 mm
00:29 13.9 °C 5.3 °C 1012.8 hPa NW 1.6 km/h 8 km/h 56 % 0 mm
00:34 13.9 °C 5.5 °C 1013.1 hPa WNW 1.6 km/h 8 km/h 57 % 0 mm
00:39 13.8 °C 5.4 °C 1013.1 hPa WNW 8 km/h 8 km/h 57 % 0 mm
00:44 13.7 °C 5.3 °C 1013.1 hPa WNW 1.6 km/h 8 km/h 57 % 0 mm
00:50 13.6 °C 5.2 °C 1012.8 hPa NW 1.6 km/h 8 km/h 57 % 0 mm
00:55 13.5 °C 5.4 °C 1013.1 hPa NNW 1.6 km/h 9.7 km/h 58 % 0 mm
01:00 13.4 °C 5.3 °C 1012.8 hPa WNW 1.6 km/h 9.7 km/h 58 % 0 mm
01:05 13.4 °C 5.3 °C 1012.8 hPa NNW 1.6 km/h 9.7 km/h 58 % 0 mm
01:10 13.3 °C 5.2 °C 1012.8 hPa Calm   8 km/h 58 % 0 mm
01:15 13.2 °C 5.4 °C 1012.8 hPa WNW 3.2 km/h 8 km/h 59 % 0 mm
01:20 13.1 °C 5.3 °C 1012.8 hPa NNW 1.6 km/h 8 km/h 59 % 0 mm
01:25 13 °C 5.2 °C 1012.8 hPa NW 1.6 km/h 8 km/h 59 % 0 mm
01:30 12.8 °C 5.2 °C 1012.8 hPa WNW 1.6 km/h 6.4 km/h 60 % 0 mm
01:35 12.8 °C 5.2 °C 1013.1 hPa West 1.6 km/h 6.4 km/h 60 % 0 mm
01:40 12.6 °C 5.3 °C 1013.1 hPa Calm   8 km/h 61 % 0 mm
01:45 12.5 °C 5.2 °C 1013.1 hPa ENE 1.6 km/h 8 km/h 61 % 0 mm
01:50 12.4 °C 5.1 °C 1013.1 hPa Calm   8 km/h 61 % 0 mm
01:55 12.3 °C 5.2 °C 1013.1 hPa Calm   8 km/h 62 % 0 mm
02:00 12.2 °C 5.1 °C 1013.1 hPa Calm   8 km/h 62 % 0 mm
02:06 12.1 °C 5 °C 1013.1 hPa West 3.2 km/h 3.2 km/h 62 % 0 mm
02:11 12 °C 5.2 °C 1013.1 hPa Calm   4.8 km/h 63 % 0 mm
02:16 11.8 °C 5 °C 1013.1 hPa Calm   4.8 km/h 63 % 0 mm
02:21 11.7 °C 5.1 °C 1013.1 hPa Calm   4.8 km/h 64 % 0 mm
02:26 11.6 °C 5 °C 1013.1 hPa Calm   3.2 km/h 64 % 0 mm
02:31 11.6 °C 5 °C 1013.1 hPa Calm   3.2 km/h 64 % 0 mm
02:36 11.4 °C 5.1 °C 1013.1 hPa Calm   4.8 km/h 65 % 0 mm
02:41 11.3 °C 5 °C 1013.1 hPa WNW 1.6 km/h 4.8 km/h 65 % 0 mm
02:46 11.2 °C 5.1 °C 1013.1 hPa Calm   4.8 km/h 66 % 0 mm
02:51 11.1 °C 5 °C 1013.1 hPa Calm   4.8 km/h 66 % 0 mm
02:56 10.9 °C 5 °C 1013.1 hPa Calm   4.8 km/h 67 % 0 mm
03:01 10.7 °C 4.8 °C 1013.4 hPa Calm   3.2 km/h 67 % 0 mm
03:06 10.6 °C 4.9 °C 1013.4 hPa Calm   3.2 km/h 68 % 0 mm
03:11 10.4 °C 4.7 °C 1013.4 hPa Calm   1.6 km/h 68 % 0 mm
03:16 10.3 °C 4.9 °C 1013.4 hPa Calm   1.6 km/h 69 % 0 mm
03:21 10.2 °C 4.8 °C 1013.4 hPa Calm   1.6 km/h 69 % 0 mm
03:26 10.2 °C 4.8 °C 1013.4 hPa Calm   3.2 km/h 69 % 0 mm
03:31 10.1 °C 4.9 °C 1013.4 hPa Calm   3.2 km/h 70 % 0 mm
03:36 9.9 °C 4.7 °C 1013.4 hPa Calm   3.2 km/h 70 % 0 mm
03:41 9.9 °C 4.9 °C 1013.4 hPa Calm   1.6 km/h 71 % 0 mm
03:46 9.9 °C 4.9 °C 1013.4 hPa Calm   3.2 km/h 71 % 0 mm
03:51 9.8 °C 4.8 °C 1013.4 hPa Calm   3.2 km/h 71 % 0 mm
03:56 9.6 °C 4.6 °C 1013.4 hPa Calm   3.2 km/h 71 % 0 mm
04:01 9.5 °C 4.7 °C 1013.4 hPa SW 1.6 km/h 1.6 km/h 72 % 0 mm
04:06 9.4 °C 4.6 °C 1013.8 hPa Calm   1.6 km/h 72 % 0 mm
04:11 9.3 °C 4.7 °C 1013.4 hPa WSW 1.6 km/h 1.6 km/h 73 % 0 mm
04:16 9.4 °C 4.8 °C 1013.4 hPa Calm   3.2 km/h 73 % 0 mm
04:21 9.4 °C 4.8 °C 1013.4 hPa West 1.6 km/h 3.2 km/h 73 % 0 mm
04:26 9.3 °C 4.7 °C 1013.4 hPa Calm   3.2 km/h 73 % 0 mm
04:31 9.2 °C 4.6 °C 1013.4 hPa Calm   1.6 km/h 73 % 0 mm
04:36 9 °C 4.6 °C 1013.4 hPa Calm   1.6 km/h 74 % 0 mm
04:41 8.8 °C 4.6 °C 1013.8 hPa Calm   1.6 km/h 75 % 0 mm
04:46 8.6 °C 4.6 °C 1013.8 hPa Calm   1.6 km/h 76 % 0 mm
04:51 8.5 °C 4.5 °C 1013.8 hPa Calm   1.6 km/h 76 % 0 mm
04:56 8.5 °C 4.7 °C 1013.8 hPa Calm   1.6 km/h 77 % 0 mm
05:01 8.4 °C 4.6 °C 1013.8 hPa Calm   1.6 km/h 77 % 0 mm
05:06 8.3 °C 4.5 °C 1013.8 hPa Calm   1.6 km/h 77 % 0 mm
05:11 8.2 °C 4.6 °C 1013.8 hPa Calm   1.6 km/h 78 % 0 mm
05:16 8.1 °C 4.5 °C 1013.8 hPa Calm   1.6 km/h 78 % 0 mm
05:21 7.9 °C 4.3 °C 1013.8 hPa Calm   1.6 km/h 78 % 0 mm
05:26 7.8 °C 4.4 °C 1013.8 hPa SW 1.6 km/h 1.6 km/h 79 % 0 mm
05:31 7.7 °C 4.3 °C 1013.8 hPa Calm   1.6 km/h 79 % 0 mm
05:36 7.7 °C 4.5 °C 1013.8 hPa Calm   1.6 km/h 80 % 0 mm
05:41 7.8 °C 4.6 °C 1013.8 hPa Calm   1.6 km/h 80 % 0 mm
05:47 7.8 °C 4.6 °C 1013.8 hPa Calm   1.6 km/h 80 % 0 mm
05:51 7.8 °C 4.4 °C 1014.1 hPa Calm   1.6 km/h 79 % 0 mm
05:57 7.7 °C 4.3 °C 1014.1 hPa Calm   1.6 km/h 79 % 0 mm
06:02 7.6 °C 4.4 °C 1013.8 hPa Calm   1.6 km/h 80 % 0 mm
06:07 7.7 °C 4.5 °C 1013.8 hPa Calm   1.6 km/h 80 % 0 mm
06:12 7.9 °C 4.5 °C 1014.1 hPa WNW 1.6 km/h 3.2 km/h 79 % 0 mm
06:17 8.1 °C 4.5 °C 1014.1 hPa Calm   3.2 km/h 78 % 0 mm
06:22 8.3 °C 4.5 °C 1014.1 hPa WSW 1.6 km/h 4.8 km/h 77 % 0 mm
06:27 8.4 °C 4.4 °C 1014.1 hPa WNW 1.6 km/h 6.4 km/h 76 % 0 mm
06:32 8.4 °C 4.4 °C 1014.1 hPa Calm   6.4 km/h 76 % 0 mm
06:37 8.4 °C 4.4 °C 1014.4 hPa Calm   6.4 km/h 76 % 0 mm
06:42 8.4 °C 4.4 °C 1014.4 hPa Calm   4.8 km/h 76 % 0 mm
06:47 8.3 °C 4.3 °C 1014.4 hPa Calm   3.2 km/h 76 % 0 mm
06:52 8.2 °C 4.2 °C 1014.4 hPa Calm   3.2 km/h 76 % 0 mm
06:57 8.2 °C 4.2 °C 1014.4 hPa Calm   3.2 km/h 76 % 0 mm
07:02 8.1 °C 4.3 °C 1014.4 hPa Calm   6.4 km/h 77 % 0 mm
07:07 8 °C 4.2 °C 1014.4 hPa West 1.6 km/h 6.4 km/h 77 % 0 mm
07:12 8.1 °C 4.3 °C 1014.8 hPa WNW 4.8 km/h 6.4 km/h 77 % 0 mm
07:17 8.1 °C 4.3 °C 1014.8 hPa WSW 1.6 km/h 4.8 km/h 77 % 0 mm
07:22 8.1 °C 4.3 °C 1014.8 hPa Calm   4.8 km/h 77 % 0 mm
07:27 8.2 °C 4.2 °C 1014.8 hPa SW 1.6 km/h 4.8 km/h 76 % 0 mm
07:32 8.4 °C 4.2 °C 1014.8 hPa Calm   6.4 km/h 75 % 0 mm
07:37 8.6 °C 4.2 °C 1014.8 hPa Calm   6.4 km/h 74 % 0 mm
07:42 8.8 °C 4.4 °C 1014.8 hPa WNW 1.6 km/h 6.4 km/h 74 % 0 mm
07:47 9 °C 4.4 °C 1014.8 hPa Calm   6.4 km/h 73 % 0 mm
07:52 9.2 °C 4.6 °C 1014.8 hPa Calm   6.4 km/h 73 % 0 mm
07:57 9.5 °C 4.7 °C 1015.1 hPa NW 1.6 km/h 6.4 km/h 72 % 0 mm
08:02 9.8 °C 5 °C 1015.1 hPa Calm   6.4 km/h 72 % 0 mm
08:07 10.1 °C 4.9 °C 1015.1 hPa Calm   6.4 km/h 70 % 0 mm
08:12 10.3 °C 5.1 °C 1015.5 hPa North 4.8 km/h 6.4 km/h 70 % 0 mm
08:17 10.6 °C 5.1 °C 1015.5 hPa Calm   8 km/h 69 % 0 mm
08:22 10.7 °C 5 °C 1015.5 hPa WSW 4.8 km/h 8 km/h 68 % 0 mm
08:27 10.9 °C 5.2 °C 1015.5 hPa Calm   8 km/h 68 % 0 mm
08:32 11.2 °C 5.3 °C 1015.5 hPa NW 1.6 km/h 8 km/h 67 % 0 mm
08:37 11.4 °C 5.1 °C 1015.8 hPa WNW 3.2 km/h 8 km/h 65 % 0 mm
08:42 11.5 °C 4.9 °C 1015.8 hPa WSW 1.6 km/h 11.3 km/h 64 % 0 mm
08:47 11.6 °C 5.2 °C 1016.1 hPa NW 3.2 km/h 11.3 km/h 65 % 0 mm
08:52 11.9 °C 4.8 °C 1016.1 hPa WNW 6.4 km/h 11.3 km/h 62 % 0 mm
08:57 11.9 °C 4.8 °C 1016.1 hPa Calm   14.5 km/h 62 % 0 mm
09:02 12.1 °C 4.3 °C 1016.1 hPa NW 1.6 km/h 14.5 km/h 59 % 0 mm
09:07 12.3 °C 4.5 °C 1016.1 hPa West 6.4 km/h 14.5 km/h 59 % 0 mm
09:12 12.6 °C 4.8 °C 1016.1 hPa NNW 8 km/h 16.1 km/h 59 % 0 mm
09:17 12.7 °C 4.6 °C 1016.5 hPa Calm   16.1 km/h 58 % 0 mm
09:22 12.9 °C 4.6 °C 1016.5 hPa NW 3.2 km/h 16.1 km/h 57 % 0 mm
09:28 13.2 °C 4.4 °C 1016.5 hPa NNW 4.8 km/h 11.3 km/h 55 % 0 mm
09:33 13.3 °C 4.4 °C 1016.5 hPa NNW 1.6 km/h 11.3 km/h 55 % 0 mm
09:38 13.7 °C 4.6 °C 1016.5 hPa NW 4.8 km/h 11.3 km/h 54 % 0 mm
09:43 13.8 °C 4.9 °C 1016.8 hPa Calm   11.3 km/h 55 % 0 mm
09:48 14 °C 4 °C 1016.5 hPa Calm   11.3 km/h 51 % 0 mm
09:53 14 °C 3.7 °C 1016.5 hPa West 1.6 km/h 12.9 km/h 50 % 0 mm
09:58 14.2 °C 3.9 °C 1016.5 hPa NNW 1.6 km/h 12.9 km/h 50 % 0 mm
10:03 14.6 °C 3.7 °C 1016.5 hPa West 3.2 km/h 12.9 km/h 48 % 0 mm
10:08 14.8 °C 3.6 °C 1016.5 hPa NW 3.2 km/h 12.9 km/h 47 % 0 mm
10:13 15 °C 3.2 °C 1016.5 hPa NW 4.8 km/h 9.7 km/h 45 % 0 mm
10:18 14.9 °C 3.1 °C 1016.5 hPa NW 3.2 km/h 12.9 km/h 45 % 0 mm
10:23 15.1 °C 3.3 °C 1016.5 hPa NNW 6.4 km/h 12.9 km/h 45 % 0 mm
10:28 15.4 °C 3.2 °C 1016.5 hPa WNW 6.4 km/h 12.9 km/h 44 % 0 mm
10:33 15.6 °C 3.4 °C 1016.8 hPa WNW 1.6 km/h 11.3 km/h 44 % 0 mm
10:38 15.8 °C 2.9 °C 1016.5 hPa NW 6.4 km/h 11.3 km/h 42 % 0 mm
10:43 16 °C 3.1 °C 1016.5 hPa NW 11.3 km/h 11.3 km/h 42 % 0 mm
10:48 16.1 °C 3.2 °C 1016.5 hPa NNW 6.4 km/h 12.9 km/h 42 % 0 mm
10:53 16.2 °C 3.3 °C 1016.5 hPa NW 9.7 km/h 12.9 km/h 42 % 0 mm
10:58 16.3 °C 3 °C 1016.1 hPa North 1.6 km/h 12.9 km/h 41 % 0 mm
11:03 16.7 °C 2.3 °C 1016.1 hPa WNW 4.8 km/h 11.3 km/h 38 % 0 mm
11:08 16.9 °C 2.9 °C 1016.1 hPa NW 1.6 km/h 12.9 km/h 39 % 0 mm
11:13 17.1 °C 2.7 °C 1016.1 hPa NNW 4.8 km/h 12.9 km/h 38 % 0 mm
11:18 17.6 °C 3.1 °C 1015.8 hPa NW 3.2 km/h 12.9 km/h 38 % 0 mm
11:23 17.8 °C 2.9 °C 1015.8 hPa NNW 8 km/h 11.3 km/h 37 % 0 mm
11:28 17.6 °C 2.7 °C 1015.8 hPa Calm   11.3 km/h 37 % 0 mm
11:33 17.9 °C 2.2 °C 1015.5 hPa WNW 3.2 km/h 14.5 km/h 35 % 0 mm
11:38 17.9 °C 1.8 °C 1015.5 hPa West 3.2 km/h 14.5 km/h 34 % 0 mm
11:43 18.1 °C 2.8 °C 1015.5 hPa Calm   14.5 km/h 36 % 0 mm
11:48 18.7 °C 2.1 °C 1015.5 hPa East 1.6 km/h 9.7 km/h 33 % 0 mm
11:53 18.7 °C 2.5 °C 1015.1 hPa NNE 1.6 km/h 9.7 km/h 34 % 0 mm
11:58 18.9 °C 3.5 °C 1014.8 hPa Calm   9.7 km/h 36 % 0 mm
12:03 19.2 °C 2.5 °C 1014.8 hPa SW 1.6 km/h 9.7 km/h 33 % 0 mm
12:08 19.2 °C 1.7 °C 1014.8 hPa NNW 4.8 km/h 8 km/h 31 % 0 mm
12:13 19.3 °C 2.2 °C 1014.8 hPa WNW 3.2 km/h 11.3 km/h 32 % 0 mm
12:18 19.4 °C 2.3 °C 1014.4 hPa NW 9.7 km/h 11.3 km/h 32 % 0 mm
12:23 19.5 °C 2.8 °C 1014.4 hPa SW 8 km/h 11.3 km/h 33 % 0 mm
12:28 19.6 °C 3.7 °C 1014.1 hPa NW 3.2 km/h 11.3 km/h 35 % 0 mm
12:33 19.8 °C 3.1 °C 1013.8 hPa NW 4.8 km/h 11.3 km/h 33 % 0 mm
12:38 20.2 °C 3.4 °C 1013.8 hPa WNW 1.6 km/h 11.3 km/h 33 % 0 mm
12:43 20.1 °C 3.3 °C 1013.8 hPa SSW 4.8 km/h 9.7 km/h 33 % 0 mm
12:48 20.3 °C 3.1 °C 1013.8 hPa NW 3.2 km/h 9.7 km/h 32 % 0 mm
12:53 20.4 °C 3.6 °C 1013.4 hPa WSW 4.8 km/h 9.7 km/h 33 % 0 mm
12:58 20.9 °C 4 °C 1013.1 hPa West 1.6 km/h 11.3 km/h 33 % 0 mm
13:03 20.7 °C 3 °C 1013.1 hPa West 3.2 km/h 11.3 km/h 31 % 0 mm
13:08 20.4 °C 2.7 °C 1013.1 hPa West 4.8 km/h 11.3 km/h 31 % 0 mm
13:13 20.6 °C 3.8 °C 1013.1 hPa Calm   11.3 km/h 33 % 0 mm
13:18 20.6 °C 2.9 °C 1012.8 hPa SW 3.2 km/h 11.3 km/h 31 % 0 mm
13:24 20.9 °C 3.6 °C 1012.8 hPa West 4.8 km/h 11.3 km/h 32 % 0 mm
13:29 20.9 °C 3.1 °C 1012.8 hPa West 3.2 km/h 9.7 km/h 31 % 0 mm
13:34 21.1 °C 3.3 °C 1012.8 hPa NW 6.4 km/h 9.7 km/h 31 % 0 mm
13:39 20.8 °C 3 °C 1012.4 hPa WNW 3.2 km/h 11.3 km/h 31 % 0 mm
13:44 20.7 °C 3 °C 1012.4 hPa West 3.2 km/h 11.3 km/h 31 % 0 mm
13:49 21 °C 4.5 °C 1012.1 hPa West 3.2 km/h 12.9 km/h 34 % 0 mm
13:54 21.3 °C 3.5 °C 1012.1 hPa WNW 1.6 km/h 12.9 km/h 31 % 0 mm
13:59 21.6 °C 5.5 °C 1012.1 hPa SSW 4.8 km/h 14.5 km/h 35 % 0 mm
14:04 22.3 °C 5.2 °C 1012.1 hPa WNW 4.8 km/h 14.5 km/h 33 % 0 mm
14:09 22.1 °C 4.2 °C 1012.1 hPa NNW 8 km/h 14.5 km/h 31 % 0 mm
14:14 21.8 °C 4.4 °C 1012.1 hPa North 1.6 km/h 9.7 km/h 32 % 0 mm
14:19 21.4 °C 3.1 °C 1012.1 hPa NW 1.6 km/h 9.7 km/h 30 % 0 mm
14:24 21.2 °C 3.4 °C 1011.7 hPa North 1.6 km/h 11.3 km/h 31 % 0 mm
14:29 21.6 °C 4.6 °C 1012.1 hPa WNW 3.2 km/h 11.3 km/h 33 % 0 mm
14:34 22.1 °C 5.1 °C 1011.7 hPa SW 3.2 km/h 11.3 km/h 33 % 0 mm
14:39 22.2 °C 4.3 °C 1011.7 hPa WSW 1.6 km/h 11.3 km/h 31 % 0 mm
14:44 22.1 °C 4.6 °C 1011.7 hPa West 4.8 km/h 9.7 km/h 32 % 0 mm
14:49 22.4 °C 4.9 °C 1011.7 hPa WSW 9.7 km/h 9.7 km/h 32 % 0 mm
14:54 22.3 °C 4.4 °C 1011.7 hPa Calm   9.7 km/h 31 % 0 mm
14:59 22.3 °C 5.2 °C 1012.1 hPa SSW 3.2 km/h 9.7 km/h 33 % 0 mm
15:04 22.5 °C 5.4 °C 1011.7 hPa Calm   9.7 km/h 33 % 0 mm
15:09 22.6 °C 4.6 °C 1011.7 hPa NW 4.8 km/h 9.7 km/h 31 % 0 mm
15:14 22.6 °C 4.6 °C 1011.7 hPa SW 6.4 km/h 9.7 km/h 31 % 0 mm
15:19 22.7 °C 4.7 °C 1011.7 hPa WNW 1.6 km/h 9.7 km/h 31 % 0 mm
15:24 22.7 °C 4.7 °C 1011.7 hPa SW 4.8 km/h 9.7 km/h 31 % 0 mm
15:29 22.7 °C 6 °C 1011.7 hPa WSW 4.8 km/h 9.7 km/h 34 % 0 mm
15:34 22.8 °C 4.8 °C 1011.7 hPa West 1.6 km/h 9.7 km/h 31 % 0 mm
15:39 22.7 °C 5.2 °C 1011.7 hPa SW 3.2 km/h 9.7 km/h 32 % 0 mm
15:44 22.6 °C 5.1 °C 1011.7 hPa Calm   9.7 km/h 32 % 0 mm
15:49 22.5 °C 4.5 °C 1011.7 hPa West 1.6 km/h 9.7 km/h 31 % 0 mm
15:54 22.4 °C 4.9 °C 1011.7 hPa SSW 3.2 km/h 11.3 km/h 32 % 0 mm
15:59 22.5 °C 5 °C 1011.7 hPa West 6.4 km/h 11.3 km/h 32 % 0 mm
16:04 22.6 °C 4.6 °C 1011.7 hPa WNW 8 km/h 11.3 km/h 31 % 0 mm
16:09 22.4 °C 4.4 °C 1011.7 hPa ENE 3.2 km/h 9.7 km/h 31 % 0 mm
16:14 22.4 °C 4.9 °C 1011.7 hPa SSW 3.2 km/h 9.7 km/h 32 % 0 mm
16:19 22.3 °C 4.4 °C 1011.7 hPa Calm   9.7 km/h 31 % 0 mm
16:24 22.1 °C 4.6 °C 1011.7 hPa WSW 1.6 km/h 9.7 km/h 32 % 0 mm
16:29 22.1 °C 4.6 °C 1011.7 hPa SW 3.2 km/h 9.7 km/h 32 % 0 mm
16:34 22.1 °C 4.6 °C 1011.7 hPa SSW 1.6 km/h 9.7 km/h 32 % 0 mm
16:39 22.1 °C 4.6 °C 1011.7 hPa SW 1.6 km/h 9.7 km/h 32 % 0 mm
16:44 22 °C 4.5 °C 1011.7 hPa SSW 3.2 km/h 9.7 km/h 32 % 0 mm
16:49 21.9 °C 4.5 °C 1011.4 hPa Calm   6.4 km/h 32 % 0 mm
16:54 21.8 °C 4.4 °C 1011.4 hPa SW 1.6 km/h 8 km/h 32 % 0 mm
16:59 21.8 °C 5.2 °C 1011.4 hPa WSW 1.6 km/h 8 km/h 34 % 0 mm
17:04 21.7 °C 4.3 °C 1011.4 hPa WSW 1.6 km/h 8 km/h 32 % 0 mm
17:09 21.5 °C 4.5 °C 1011.4 hPa Calm   6.4 km/h 33 % 0 mm
17:14 21.5 °C 4.5 °C 1011.1 hPa Calm   4.8 km/h 33 % 0 mm
17:19 21.3 °C 4.4 °C 1011.1 hPa Calm   4.8 km/h 33 % 0 mm
17:24 21.2 °C 5.1 °C 1011.1 hPa Calm   4.8 km/h 35 % 0 mm
17:29 20.8 °C 4.8 °C 1011.1 hPa Calm   1.6 km/h 35 % 0 mm
17:34 20.4 °C 4.8 °C 1011.1 hPa Calm   1.6 km/h 36 % 0 mm
17:39 19.9 °C 5.2 °C 1011.1 hPa Calm   1.6 km/h 38 % 0 mm
17:44 19.4 °C 5.5 °C 1011.1 hPa Calm   1.6 km/h 40 % 0 mm
17:49 18.9 °C 5.7 °C 1011.1 hPa SSW 1.6 km/h 1.6 km/h 42 % 0 mm
17:54 18.4 °C 5.6 °C 1011.1 hPa Calm   1.6 km/h 43 % 0 mm
17:59 18.1 °C 5.3 °C 1011.1 hPa Calm   1.6 km/h 43 % 0 mm
18:04 17.6 °C 5.8 °C 1011.1 hPa Calm   1.6 km/h 46 % 0 mm
18:09 17.2 °C 5.8 °C 1011.4 hPa Calm   1.6 km/h 47 % 0 mm
18:14 16.9 °C 5.8 °C 1011.4 hPa Calm     48 % 0 mm
18:19 16.8 °C 6 °C 1011.4 hPa Calm     49 % 0 mm
18:24 16.8 °C 5.7 °C 1011.4 hPa Calm   1.6 km/h 48 % 0 mm
18:29 16.6 °C 6.1 °C 1011.4 hPa Calm   1.6 km/h 50 % 0 mm
18:35 16.6 °C 6.4 °C 1011.4 hPa Calm   1.6 km/h 51 % 0 mm
18:39 16.4 °C 6.2 °C 1011.4 hPa Calm   1.6 km/h 51 % 0 mm
18:45 16.3 °C 6.1 °C 1011.4 hPa Calm   1.6 km/h 51 % 0 mm
18:50 16.1 °C 6.8 °C 1011.4 hPa Calm   1.6 km/h 54 % 0 mm
18:55 15.7 °C 6.4 °C 1011.7 hPa Calm   1.6 km/h 54 % 0 mm
19:00 15.4 °C 6.4 °C 1011.7 hPa Calm   1.6 km/h 55 % 0 mm
19:05 15.2 °C 6.7 °C 1011.7 hPa Calm   1.6 km/h 57 % 0 mm
19:10 14.9 °C 6.5 °C 1011.7 hPa Calm   1.6 km/h 57 % 0 mm
19:15 14.6 °C 6.2 °C 1011.4 hPa Calm   1.6 km/h 57 % 0 mm
19:20 14.4 °C 6.5 °C 1011.4 hPa Calm     59 % 0 mm
19:25 14.4 °C 7 °C 1011.4 hPa Calm   1.6 km/h 61 % 0 mm
19:30 14.7 °C 6.8 °C 1011.4 hPa Calm   1.6 km/h 59 % 0 mm
19:35 14.7 °C 6.8 °C 1011.4 hPa Calm   1.6 km/h 59 % 0 mm
19:40 14.4 °C 6.7 °C 1011.4 hPa Calm   1.6 km/h 60 % 0 mm
19:45 14.2 °C 6.8 °C 1011.4 hPa Calm     61 % 0 mm
19:50 14.1 °C 7.2 °C 1011.4 hPa Calm   1.6 km/h 63 % 0 mm
19:55 14.2 °C 7.3 °C 1011.4 hPa Calm   1.6 km/h 63 % 0 mm
20:00 14.3 °C 7.4 °C 1011.4 hPa Calm   1.6 km/h 63 % 0 mm
20:05 14.3 °C 7.4 °C 1011.4 hPa Calm   1.6 km/h 63 % 0 mm
20:10 14.2 °C 7.3 °C 1011.4 hPa Calm   1.6 km/h 63 % 0 mm
20:15 14.2 °C 7.3 °C 1011.4 hPa Calm     63 % 0 mm
20:20 14.1 °C 7.4 °C 1011.4 hPa Calm   1.6 km/h 64 % 0 mm
20:25 14 °C 7.5 °C 1011.4 hPa Calm   1.6 km/h 65 % 0 mm
20:30 14 °C 7.5 °C 1011.4 hPa Calm   1.6 km/h 65 % 0 mm
20:35 13.9 °C 7.7 °C 1011.4 hPa Calm   1.6 km/h 66 % 0 mm
20:40 13.7 °C 7.5 °C 1011.4 hPa Calm   1.6 km/h 66 % 0 mm
20:45 13.6 °C 7.8 °C 1011.4 hPa Calm   1.6 km/h 68 % 0 mm
20:50 13.5 °C 7.7 °C 1011.1 hPa Calm   1.6 km/h 68 % 0 mm
20:55 13.4 °C 7.6 °C 1011.1 hPa Calm   1.6 km/h 68 % 0 mm
21:00 13.4 °C 7.6 °C 1011.4 hPa Calm   1.6 km/h 68 % 0 mm
21:05 13.3 °C 7.5 °C 1011.1 hPa Calm   1.6 km/h 68 % 0 mm
21:10 13.2 °C 7.6 °C 1011.1 hPa Calm   1.6 km/h 69 % 0 mm
21:15 13.1 °C 7.5 °C 1011.4 hPa Calm     69 % 0 mm
21:20 12.9 °C 7.6 °C 1011.4 hPa Calm     70 % 0 mm
21:25 12.9 °C 7.8 °C 1011.4 hPa SSE 1.6 km/h 1.6 km/h 71 % 0 mm
21:31 13.2 °C 7.8 °C 1011.4 hPa Calm   1.6 km/h 70 % 0 mm
21:36 13.3 °C 7.5 °C 1011.4 hPa SSE 1.6 km/h 1.6 km/h 68 % 0 mm
21:41 13.6 °C 7.6 °C 1011.4 hPa South 1.6 km/h 1.6 km/h 67 % 0 mm
21:46 13.8 °C 7.6 °C 1011.4 hPa Calm   1.6 km/h 66 % 0 mm
21:51 13.9 °C 7.4 °C 1011.4 hPa SSE 1.6 km/h 1.6 km/h 65 % 0 mm
21:56 14 °C 7.5 °C 1011.4 hPa Calm   1.6 km/h 65 % 0 mm
22:01 14 °C 7.5 °C 1011.4 hPa South 1.6 km/h 3.2 km/h 65 % 0 mm
22:06 14.1 °C 7.6 °C 1011.4 hPa SSW 6.4 km/h 6.4 km/h 65 % 0 mm
22:11 14.4 °C 7.7 °C 1011.7 hPa South 3.2 km/h 6.4 km/h 64 % 0 mm
22:16 14.6 °C 7.6 °C 1011.7 hPa SSW 1.6 km/h 6.4 km/h 63 % 0 mm
22:21 14.6 °C 7.6 °C 1011.7 hPa SSE 1.6 km/h 6.4 km/h 63 % 0 mm
22:26 14.6 °C 7.6 °C 1011.4 hPa SSE 3.2 km/h 6.4 km/h 63 % 0 mm
22:31 14.6 °C 7.6 °C 1011.4 hPa South 1.6 km/h 6.4 km/h 63 % 0 mm
22:36 14.6 °C 7.6 °C 1011.4 hPa South 3.2 km/h 6.4 km/h 63 % 0 mm
22:42 14.6 °C 7.9 °C 1011.4 hPa South 1.6 km/h 6.4 km/h 64 % 0 mm
22:47 14.6 °C 7.9 °C 1011.4 hPa South 4.8 km/h 6.4 km/h 64 % 0 mm
22:52 14.6 °C 7.9 °C 1011.4 hPa South 1.6 km/h 6.4 km/h 64 % 0 mm
22:57 14.5 °C 7.8 °C 1011.4 hPa SSE 3.2 km/h 6.4 km/h 64 % 0 mm
23:02 14.4 °C 7.7 °C 1011.4 hPa South 3.2 km/h 6.4 km/h 64 % 0 mm
23:07 14.4 °C 7.7 °C 1011.4 hPa South 1.6 km/h 6.4 km/h 64 % 0 mm
23:12 14.4 °C 7.7 °C 1011.1 hPa SSE 3.2 km/h 6.4 km/h 64 % 0 mm
23:17 14.3 °C 7.6 °C 1011.1 hPa Calm   6.4 km/h 64 % 0 mm
23:22 14.3 °C 7.8 °C 1011.1 hPa Calm   6.4 km/h 65 % 0 mm
23:27 14.2 °C 7.5 °C 1011.1 hPa SSW 3.2 km/h 6.4 km/h 64 % 0 mm
23:32 14.2 °C 7.5 °C 1011.1 hPa SSW 3.2 km/h 6.4 km/h 64 % 0 mm
23:37 14.1 °C 7.4 °C 1011.1 hPa South 3.2 km/h 6.4 km/h 64 % 0 mm
23:42 13.9 °C 7.2 °C 1011.1 hPa SSW 3.2 km/h 4.8 km/h 64 % 0 mm
23:47 14 °C 7.3 °C 1011.1 hPa SSE 1.6 km/h 8 km/h 64 % 0 mm
23:52 14 °C 7.3 °C 1011.1 hPa South 3.2 km/h 8 km/h 64 % 0 mm
23:57 13.9 °C 7.2 °C 1010.7 hPa SSW 3.2 km/h 8 km/h 64 % 0 mm
Spring, Texas: Villages of Bridgestone
Compliments of Weather Underground - 2.75 mb

Script developed by  Jim McMurry - jmcmurry@mwt.net Adapted for the template by  Wim van der Kuil - Leuven-Template.eu

You find our weather info also at:

UK Metoffice

WeatherCloud

Weather Underground

Mid-South Weather Network

AWEKAS

Citizen Weather Observer Program (CWOP)

HAMweather, WeatherForYou, PWS Weather

Equipment we use:

Weather-station
Davis Vantage Vue

Weather-program
Meteohub

Weather-server
Debian 7.9 x86 (Guest)

Provider
DreamHost

Davis Vantage Vue

Meteohub

Debian 7.9 x86 (Guest)

DreamHost